Bloomfield Township, Michigan
Current Conditions -  °F | °C
As of 6:35 AM on Friday 31 Oct 2014 (Local Time) from KVLL Reporting Station
Overcast Overcast  
Wind Chill:   Ceiling: 7000
Heat Index:   Visibility: 10mi
Dew Point:   Wind: 5mph
Humidity: 69%   Direction: 200°SSW
Pressure: 29.92"   Gusts: NA
Location:  42.5858°N, 83.2941°W
Report Text: KVLL 311035Z AUTO 20004KT 10SM BKN070 OVC080 07/02 A2992 RMK AO2 T00730020
Loading
Personal Weather Stations






























Interactive Weather Map
Tropical Storm Tracking
New forecast layout! Learn more

10-Day Weather Forecast

Advertisements
Track Severe Weather on mobile